CheckWX is a tool to help pilots better visualize weather data.  It is not intended as a substitute for an official pre-flight weather briefing.

08:02:48 UTC

EPPO TAF
Poznań-Ławica Airport
Poznań, Poland
TAF EPPO 190530Z 1906/2006 27012KT 9999 BKN020 PROB40 1906/1907 BKN013 TEMPO 1907/1919 27015G25KT SHRA BKN020CB BECMG 1922/2001 2000 BR TEMPO 2002/2006 1200 BR

Mar-19@
06:00 UTC

Mar-19 @ 06:00 UTC

Mar-19@
22:00 UTC

Mar-19 @ 22:00 UTC

TAF EPPO 190530Z 1906/2006 27012KT 9999 BKN020
Wind
  • 270° at 12 KTS
Cloud Levels
  • Broken at 2,000' AGL

Mar-19@
06:00 UTC

Mar-19 @ 06:00 UTC

Mar-19@
07:00 UTC

Mar-19 @ 07:00 UTC

PROB40 1906/1907 BKN013

Expired

Cloud Levels
  • Broken at 1,300' AGL

Mar-19@
07:00 UTC

Mar-19 @ 07:00 UTC

Mar-19@
19:00 UTC

Mar-19 @ 19:00 UTC

TEMPO 1907/1919 27015G25KT SHRA BKN020CB

Temporary

Temporary Changes expected for less than half the time period

Wind
  • 270° at 15 KTS
  • {Gusting to 25 KTS
Conditions
Rain
Cloud Levels
  • Broken at 2,000' AGL

Mar-19@
22:00 UTC

Mar-19 @ 22:00 UTC

Mar-20@
06:00 UTC

Mar-20 @ 06:00 UTC

BECMG 1922/2001 2000 BR

Becoming

Becoming Conditions expected by Wed, Mar 20, 2019 @ 01:00 UTC

Wind
  • 270° at 12 KTS
Conditions
Mist
Cloud Levels
  • Broken at 2,000' AGL

Mar-20@
02:00 UTC

Mar-20 @ 02:00 UTC

Mar-20@
06:00 UTC

Mar-20 @ 06:00 UTC

TEMPO 2002/2006 1200 BR

Temporary

Temporary Changes expected for less than half the time period

Conditions
Mist